Time,TemperatureF,DewpointF,PressureIn,WindDirection,WindDirectionDegrees,WindSpeedMPH,WindSpeedGustMPH,Humidity,HourlyPrecipIn,Conditions,Clouds,dailyrainin,SoftwareType,DateUTC
2013-02-16 00:00:00,19.3,12.1,29.93,WNW,292,0.0,0.0,73,0.00,,,0.00,WUHU21623XXSP,2013-02-16 05:00:00,
2013-02-16 00:05:00,18.8,11.6,29.93,WNW,292,0.0,0.0,73,0.00,,,0.00,WUHU21623XXSP,2013-02-16 05:05:00,
2013-02-16 00:10:00,18.6,11.4,29.93,WNW,292,0.0,0.0,73,0.00,,,0.00,WUHU21623XXSP,2013-02-16 05:10:00,
2013-02-16 00:15:00,18.3,11.4,29.93,WNW,292,0.0,0.0,74,0.00,,,0.00,WUHU21623XXSP,2013-02-16 05:15:00,
2013-02-16 00:20:00,18.1,11.2,29.93,WNW,292,0.0,0.0,74,0.00,,,0.00,WUHU21623XXSP,2013-02-16 05:20:00,
2013-02-16 01:14:00,15.9,10.0,29.92,WNW,293,0.0,0.0,77,0.00,,,0.00,WUHU21623XXSP,2013-02-16 06:14:00,
2013-02-16 02:14:00,14.8,9.5,29.91,WNW,293,0.0,0.0,79,0.00,,,0.00,WUHU21623XXSP,2013-02-16 07:14:00,
2013-02-16 03:14:00,15.0,10.2,29.90,WNW,293,0.0,0.0,81,0.00,,,0.00,WUHU21623XXSP,2013-02-16 08:14:00,
2013-02-16 04:14:00,16.3,11.5,29.88,WNW,293,0.0,0.0,81,0.00,,,0.00,WUHU21623XXSP,2013-02-16 09:14:00,
2013-02-16 05:14:00,15.2,10.4,29.88,NNW,338,0.0,0.0,81,0.00,,,0.00,WUHU21623XXSP,2013-02-16 10:14:00,
2013-02-16 06:14:00,15.4,10.9,29.87,NNW,338,0.0,0.0,82,0.00,,,0.00,WUHU21623XXSP,2013-02-16 11:14:00,
2013-02-16 07:14:00,16.5,12.0,29.87,NNW,338,0.0,0.0,82,0.00,,,0.00,WUHU21623XXSP,2013-02-16 12:14:00,
2013-02-16 08:14:00,18.1,13.8,29.87,NE,45,0.0,0.0,83,0.00,,,0.00,WUHU21623XXSP,2013-02-16 13:14:00,
2013-02-16 08:53:00,19.5,14.9,29.87,East,90,0.0,0.0,82,0.00,,,0.00,WUHU21623XXSP,2013-02-16 13:53:00,
2013-02-16 08:58:00,19.9,15.3,29.87,East,90,0.0,0.0,82,0.00,,,0.00,WUHU21623XXSP,2013-02-16 13:58:00,
2013-02-16 09:03:00,20.1,15.5,29.87,East,90,0.0,0.0,82,0.00,,,0.00,WUHU21623XXSP,2013-02-16 14:03:00,
2013-02-16 09:08:00,20.2,15.3,29.87,East,90,0.0,0.0,81,0.00,,,0.00,WUHU21623XXSP,2013-02-16 14:08:00,
2013-02-16 09:13:00,20.2,15.3,29.87,East,90,0.0,0.0,81,0.00,,,0.00,WUHU21623XXSP,2013-02-16 14:13:00,
2013-02-16 09:21:00,20.8,15.6,29.87,SE,135,0.0,0.0,80,0.00,,,0.00,WUHU21623XXSP,2013-02-16 14:21:00,
2013-02-16 09:26:00,21.3,16.1,29.87,SE,135,0.0,0.0,80,0.00,,,0.00,WUHU21623XXSP,2013-02-16 14:26:00,
2013-02-16 09:31:00,21.3,16.1,29.87,SE,135,0.0,0.0,80,0.00,,,0.00,WUHU21623XXSP,2013-02-16 14:31:00,
2013-02-16 09:36:00,21.7,16.2,29.87,SE,135,0.0,0.0,79,0.00,,,0.00,WUHU21623XXSP,2013-02-16 14:36:00,
2013-02-16 09:41:00,21.7,16.2,29.87,SE,135,0.0,0.0,79,0.00,,,0.00,WUHU21623XXSP,2013-02-16 14:41:00,
2013-02-16 09:46:00,21.9,16.4,29.86,South,180,0.0,0.0,79,0.00,,,0.00,WUHU21623XXSP,2013-02-16 14:46:00,
2013-02-16 09:51:00,21.7,15.9,29.86,South,180,0.0,0.0,78,0.00,,,0.00,WUHU21623XXSP,2013-02-16 14:51:00,
2013-02-16 09:56:00,21.9,16.1,29.86,SW,225,0.0,0.0,78,0.00,,,0.00,WUHU21623XXSP,2013-02-16 14:56:00,
2013-02-16 10:01:00,22.0,16.2,29.86,SSW,202,0.0,0.0,78,0.00,,,0.00,WUHU21623XXSP,2013-02-16 15:01:00,
2013-02-16 10:06:00,22.6,16.8,29.87,South,180,0.0,0.0,78,0.00,,,0.00,WUHU21623XXSP,2013-02-16 15:06:00,
2013-02-16 10:11:00,23.1,17.0,29.86,South,180,0.0,0.0,77,0.00,,,0.00,WUHU21623XXSP,2013-02-16 15:11:00,
2013-02-16 10:16:00,23.5,17.4,29.86,WNW,292,0.0,0.0,77,0.00,,,0.00,WUHU21623XXSP,2013-02-16 15:16:00,
2013-02-16 10:21:00,23.7,17.3,29.86,SSW,202,0.0,0.0,76,0.00,,,0.00,WUHU21623XXSP,2013-02-16 15:21:00,
2013-02-16 10:26:00,23.8,17.4,29.86,South,180,0.0,0.0,76,0.00,,,0.00,WUHU21623XXSP,2013-02-16 15:26:00,
2013-02-16 10:31:00,23.8,17.1,29.87,NW,315,0.0,0.0,75,0.00,,,0.00,WUHU21623XXSP,2013-02-16 15:31:00,
2013-02-16 10:36:00,23.7,17.0,29.87,SSW,202,0.0,0.0,75,0.00,,,0.00,WUHU21623XXSP,2013-02-16 15:36:00,
2013-02-16 10:41:00,23.5,16.8,29.86,SSW,202,0.0,0.0,75,0.00,,,0.00,WUHU21623XXSP,2013-02-16 15:41:00,
2013-02-16 10:46:00,23.8,17.1,29.86,WNW,292,0.0,0.0,75,0.00,,,0.00,WUHU21623XXSP,2013-02-16 15:46:00,
2013-02-16 10:51:00,23.8,17.1,29.86,West,270,0.0,0.0,75,0.00,,,0.00,WUHU21623XXSP,2013-02-16 15:51:00,
2013-02-16 10:56:00,24.0,17.0,29.87,SSW,202,0.0,0.0,74,0.00,,,0.00,WUHU21623XXSP,2013-02-16 15:56:00,
2013-02-16 11:01:00,24.2,17.1,29.86,SW,225,0.0,0.0,74,0.00,,,0.00,WUHU21623XXSP,2013-02-16 16:01:00,
2013-02-16 11:06:00,24.4,17.0,29.86,WNW,292,0.0,0.0,73,0.00,,,0.00,WUHU21623XXSP,2013-02-16 16:06:00,
2013-02-16 11:11:00,24.4,17.0,29.86,West,270,0.0,0.0,73,0.00,,,0.00,WUHU21623XXSP,2013-02-16 16:11:00,
2013-02-16 11:16:00,24.4,16.7,29.86,West,270,0.0,0.0,72,0.00,,,0.00,WUHU21623XXSP,2013-02-16 16:16:00,
2013-02-16 11:21:00,24.4,16.7,29.86,West,270,0.0,0.0,72,0.00,,,0.00,WUHU21623XXSP,2013-02-16 16:21:00,
2013-02-16 11:26:00,24.7,16.7,29.86,SW,225,0.0,0.0,71,0.00,,,0.00,WUHU21623XXSP,2013-02-16 16:26:00,
2013-02-16 11:31:00,24.9,16.9,29.86,West,270,0.0,0.0,71,0.00,,,0.00,WUHU21623XXSP,2013-02-16 16:31:00,
2013-02-16 11:38:00,24.9,16.6,29.86,WNW,292,0.0,0.0,70,0.00,,,0.00,WUHU21623XXSP,2013-02-16 16:38:00,
2013-02-16 11:44:00,24.7,16.4,29.87,West,270,0.0,0.0,70,0.00,,,0.00,WUHU21623XXSP,2013-02-16 16:44:00,
2013-02-16 11:49:00,24.7,16.4,29.86,West,270,0.0,0.0,70,0.00,,,0.00,WUHU21623XXSP,2013-02-16 16:49:00,
2013-02-16 11:54:00,24.7,16.4,29.86,West,270,0.0,0.0,70,0.00,,,0.00,WUHU21623XXSP,2013-02-16 16:54:00,
2013-02-16 11:59:00,25.1,16.7,29.86,WNW,292,0.0,0.0,70,0.00,,,0.00,WUHU21623XXSP,2013-02-16 16:59:00,
2013-02-16 12:04:00,25.6,16.9,29.86,WNW,292,0.0,0.0,69,0.00,,,0.00,WUHU21623XXSP,2013-02-16 17:04:00,
2013-02-16 12:09:00,25.6,16.6,29.86,West,270,0.0,0.0,68,0.00,,,0.00,WUHU21623XXSP,2013-02-16 17:09:00,
2013-02-16 12:14:00,25.6,16.6,29.86,WNW,292,0.0,0.0,68,0.00,,,0.00,WUHU21623XXSP,2013-02-16 17:14:00,
2013-02-16 12:19:00,25.3,15.9,29.86,NW,315,5.6,5.6,67,0.00,,,0.00,WUHU21623XXSP,2013-02-16 17:19:00,
2013-02-16 12:24:00,24.9,15.2,29.86,WNW,292,0.0,5.6,66,0.00,,,0.00,WUHU21623XXSP,2013-02-16 17:24:00,
2013-02-16 12:29:00,24.9,15.5,29.86,WNW,292,0.0,0.0,67,0.00,,,0.00,WUHU21623XXSP,2013-02-16 17:29:00,
2013-02-16 12:34:00,24.9,15.2,29.86,NW,315,0.0,0.0,66,0.00,,,0.00,WUHU21623XXSP,2013-02-16 17:34:00,
2013-02-16 12:39:00,24.9,15.2,29.86,South,180,2.9,2.9,66,0.00,,,0.00,WUHU21623XXSP,2013-02-16 17:39:00,
2013-02-16 12:44:00,25.5,15.8,29.85,WNW,292,0.0,2.9,66,0.00,,,0.00,WUHU21623XXSP,2013-02-16 17:44:00,
2013-02-16 12:49:00,25.6,15.9,29.85,NW,315,0.0,0.0,66,0.00,,,0.00,WUHU21623XXSP,2013-02-16 17:49:00,
2013-02-16 12:54:00,25.5,15.8,29.85,NW,315,0.0,0.0,66,0.00,,,0.00,WUHU21623XXSP,2013-02-16 17:54:00,
2013-02-16 12:59:00,25.3,15.6,29.84,West,270,0.0,0.0,66,0.00,,,0.00,WUHU21623XXSP,2013-02-16 17:59:00,
2013-02-16 13:05:00,25.3,15.6,29.85,WNW,292,0.0,0.0,66,0.00,,,0.00,WUHU21623XXSP,2013-02-16 18:05:00,
2013-02-16 13:10:00,24.9,15.2,29.84,NNW,337,5.1,5.1,66,0.00,,,0.00,WUHU21623XXSP,2013-02-16 18:10:00,
2013-02-16 13:15:00,24.9,15.2,29.84,WNW,292,0.0,5.1,66,0.00,,,0.00,WUHU21623XXSP,2013-02-16 18:15:00,
2013-02-16 13:21:00,24.9,15.2,29.84,NW,315,5.4,5.4,66,0.00,,,0.00,WUHU21623XXSP,2013-02-16 18:21:00,
2013-02-16 13:26:00,24.9,15.2,29.85,WNW,292,0.0,5.4,66,0.00,,,0.00,WUHU21623XXSP,2013-02-16 18:26:00,
2013-02-16 13:31:00,23.8,14.8,29.85,WNW,292,5.8,5.8,68,0.00,,,0.00,WUHU21623XXSP,2013-02-16 18:31:00,
2013-02-16 13:36:00,23.5,14.9,29.84,NNW,337,0.0,5.8,69,0.00,,,0.00,WUHU21623XXSP,2013-02-16 18:36:00,
2013-02-16 13:41:00,23.3,14.7,29.85,NNW,337,3.8,3.8,69,0.00,,,0.00,WUHU21623XXSP,2013-02-16 18:41:00,
2013-02-16 13:46:00,22.9,14.6,29.85,WNW,292,3.1,3.8,70,0.00,,,0.00,WUHU21623XXSP,2013-02-16 18:46:00,
2013-02-16 13:51:00,22.9,14.6,29.84,NNW,337,2.0,3.1,70,0.00,,,0.00,WUHU21623XXSP,2013-02-16 18:51:00,
2013-02-16 13:56:00,22.9,14.6,29.84,NNE,22,0.0,2.0,70,0.00,,,0.00,WUHU21623XXSP,2013-02-16 18:56:00,
2013-02-16 14:01:00,22.9,14.6,29.85,NNW,337,2.7,6.3,70,0.00,,,0.00,WUHU21623XXSP,2013-02-16 19:01:00,
2013-02-16 14:06:00,22.9,14.3,29.84,NNE,22,0.0,6.3,69,0.00,,,0.00,WUHU21623XXSP,2013-02-16 19:06:00,
2013-02-16 14:11:00,22.9,14.3,29.85,North,0,2.9,2.9,69,0.00,,,0.00,WUHU21623XXSP,2013-02-16 19:11:00,
2013-02-16 14:16:00,22.9,14.3,29.85,North,0,0.0,2.9,69,0.00,,,0.00,WUHU21623XXSP,2013-02-16 19:16:00,
2013-02-16 14:21:00,23.1,14.5,29.84,NW,315,7.6,7.6,69,0.00,,,0.00,WUHU21623XXSP,2013-02-16 19:21:00,
2013-02-16 14:26:00,23.1,14.5,29.84,North,0,0.0,7.6,69,0.00,,,0.00,WUHU21623XXSP,2013-02-16 19:26:00,
2013-02-16 14:31:00,23.1,14.5,29.84,North,0,0.0,0.0,69,0.00,,,0.00,WUHU21623XXSP,2013-02-16 19:31:00,
2013-02-16 14:36:00,23.3,14.7,29.84,North,0,0.0,0.0,69,0.00,,,0.00,WUHU21623XXSP,2013-02-16 19:36:00,
2013-02-16 14:41:00,23.5,14.9,29.84,WNW,292,0.0,0.0,69,0.00,,,0.00,WUHU21623XXSP,2013-02-16 19:41:00,
2013-02-16 14:46:00,23.7,14.7,29.84,NW,315,5.4,5.4,68,0.00,,,0.00,WUHU21623XXSP,2013-02-16 19:46:00,
2013-02-16 14:51:00,23.5,14.5,29.84,NNW,337,0.0,5.4,68,0.00,,,0.00,WUHU21623XXSP,2013-02-16 19:51:00,
2013-02-16 14:56:00,23.1,14.2,29.84,WNW,292,2.9,2.9,68,0.00,,,0.00,WUHU21623XXSP,2013-02-16 19:56:00,
2013-02-16 15:01:00,23.1,14.2,29.84,NW,315,0.0,2.9,68,0.00,,,0.00,WUHU21623XXSP,2013-02-16 20:01:00,
2013-02-16 15:06:00,22.9,13.6,29.84,NNW,337,0.0,0.0,67,0.00,,,0.00,WUHU21623XXSP,2013-02-16 20:06:00,
2013-02-16 15:11:00,22.9,13.6,29.84,WNW,292,0.0,0.0,67,0.00,,,0.00,WUHU21623XXSP,2013-02-16 20:11:00,
2013-02-16 15:16:00,23.1,14.2,29.84,North,0,2.9,2.9,68,0.00,,,0.00,WUHU21623XXSP,2013-02-16 20:16:00,
2013-02-16 15:21:00,22.9,13.6,29.84,North,0,0.0,2.9,67,0.00,,,0.00,WUHU21623XXSP,2013-02-16 20:21:00,
2013-02-16 15:26:00,22.6,13.3,29.84,NNW,337,0.0,0.0,67,0.00,,,0.00,WUHU21623XXSP,2013-02-16 20:26:00,
2013-02-16 15:31:00,22.6,13.3,29.84,NNW,337,0.0,0.0,67,0.00,,,0.00,WUHU21623XXSP,2013-02-16 20:31:00,
2013-02-16 15:36:00,22.6,13.3,29.85,NNE,22,0.0,0.0,67,0.00,,,0.00,WUHU21623XXSP,2013-02-16 20:36:00,
2013-02-16 15:41:00,22.4,13.2,29.84,NW,315,1.6,1.6,67,0.00,,,0.00,WUHU21623XXSP,2013-02-16 20:41:00,
2013-02-16 15:46:00,22.4,13.2,29.85,NNW,337,0.0,1.6,67,0.00,,,0.00,WUHU21623XXSP,2013-02-16 20:46:00,
2013-02-16 15:51:00,22.2,13.0,29.85,NNW,337,3.4,3.4,67,0.00,,,0.00,WUHU21623XXSP,2013-02-16 20:51:00,
2013-02-16 15:56:00,22.0,12.8,29.85,North,0,0.0,3.4,67,0.00,,,0.00,WUHU21623XXSP,2013-02-16 20:56:00,
2013-02-16 16:01:00,21.9,12.7,29.85,NNW,337,0.0,0.0,67,0.00,,,0.00,WUHU21623XXSP,2013-02-16 21:01:00,
2013-02-16 16:06:00,21.9,12.7,29.85,West,270,0.0,0.0,67,0.00,,,0.00,WUHU21623XXSP,2013-02-16 21:06:00,
2013-02-16 16:14:00,22.0,12.8,29.85,NNW,337,0.0,0.0,67,0.00,,,0.00,WUHU21623XXSP,2013-02-16 21:14:00,
2013-02-16 16:19:00,22.0,12.8,29.85,NNW,337,0.0,0.0,67,0.00,,,0.00,WUHU21623XXSP,2013-02-16 21:19:00,
2013-02-16 16:24:00,22.0,12.8,29.85,NW,315,0.0,0.0,67,0.00,,,0.00,WUHU21623XXSP,2013-02-16 21:24:00,
2013-02-16 16:29:00,21.9,12.7,29.86,NNW,337,5.8,5.8,67,0.00,,,0.00,WUHU21623XXSP,2013-02-16 21:29:00,
2013-02-16 16:34:00,21.7,12.5,29.85,NNW,337,6.7,6.7,67,0.00,,,0.00,WUHU21623XXSP,2013-02-16 21:34:00,
2013-02-16 16:39:00,21.7,12.5,29.85,North,0,0.0,6.7,67,0.00,,,0.00,WUHU21623XXSP,2013-02-16 21:39:00,
2013-02-16 16:44:00,21.5,12.3,29.85,NNW,337,0.0,0.0,67,0.00,,,0.00,WUHU21623XXSP,2013-02-16 21:44:00,
2013-02-16 16:49:00,21.3,12.1,29.86,NW,315,1.8,1.8,67,0.00,,,0.00,WUHU21623XXSP,2013-02-16 21:49:00,
2013-02-16 16:54:00,21.3,12.1,29.86,NW,315,0.0,1.8,67,0.00,,,0.00,WUHU21623XXSP,2013-02-16 21:54:00,
2013-02-16 16:59:00,21.1,12.2,29.86,NW,315,2.0,2.0,68,0.00,,,0.00,WUHU21623XXSP,2013-02-16 21:59:00,
2013-02-16 17:04:00,21.0,12.5,29.86,NW,315,4.5,4.5,69,0.00,,,0.00,WUHU21623XXSP,2013-02-16 22:04:00,
2013-02-16 17:09:00,20.8,12.6,29.87,NNW,337,0.0,4.5,70,0.00,,,0.00,WUHU21623XXSP,2013-02-16 22:09:00,
2013-02-16 17:14:00,20.6,12.7,29.86,North,0,0.0,0.0,71,0.00,,,0.00,WUHU21623XXSP,2013-02-16 22:14:00,
2013-02-16 17:19:00,20.6,12.7,29.86,NW,315,0.0,0.0,71,0.00,,,0.00,WUHU21623XXSP,2013-02-16 22:19:00,
2013-02-16 17:24:00,20.6,12.7,29.86,NNW,337,0.0,0.0,71,0.00,,,0.00,WUHU21623XXSP,2013-02-16 22:24:00,
2013-02-16 17:29:00,20.4,12.5,29.87,NNW,337,0.0,0.0,71,0.00,,,0.00,WUHU21623XXSP,2013-02-16 22:29:00,
2013-02-16 17:34:00,20.2,12.7,29.87,NW,315,0.0,0.0,72,0.00,,,0.00,WUHU21623XXSP,2013-02-16 22:34:00,
2013-02-16 17:39:00,20.2,12.7,29.87,NNE,22,0.0,0.0,72,0.00,,,0.00,WUHU21623XXSP,2013-02-16 22:39:00,
2013-02-16 17:44:00,20.2,12.7,29.87,NNW,337,0.0,0.0,72,0.00,,,0.00,WUHU21623XXSP,2013-02-16 22:44:00,
2013-02-16 17:49:00,20.1,12.6,29.87,NNW,337,0.0,0.0,72,0.00,,,0.00,WUHU21623XXSP,2013-02-16 22:49:00,
2013-02-16 17:54:00,19.9,12.4,29.87,NNW,337,0.0,0.0,72,0.00,,,0.00,WUHU21623XXSP,2013-02-16 22:54:00,
2013-02-16 17:59:00,19.5,11.7,29.87,NNE,22,0.0,0.0,71,0.00,,,0.00,WUHU21623XXSP,2013-02-16 22:59:00,
2013-02-16 18:04:00,19.3,11.5,29.87,North,0,0.0,0.0,71,0.00,,,0.00,WUHU21623XXSP,2013-02-16 23:04:00,
2013-02-16 18:09:00,18.8,11.3,29.87,North,0,0.0,0.0,72,0.00,,,0.00,WUHU21623XXSP,2013-02-16 23:09:00,
2013-02-16 18:14:00,18.4,10.9,29.87,NNW,337,0.0,0.0,72,0.00,,,0.00,WUHU21623XXSP,2013-02-16 23:14:00,
2013-02-16 18:19:00,18.4,11.2,29.88,NNW,337,0.0,0.0,73,0.00,,,0.00,WUHU21623XXSP,2013-02-16 23:19:00,
2013-02-16 18:24:00,18.3,11.1,29.88,North,0,0.0,0.0,73,0.00,,,0.00,WUHU21623XXSP,2013-02-16 23:24:00,
2013-02-16 18:31:00,18.1,10.9,29.89,NNW,337,0.0,0.0,73,0.00,,,0.00,WUHU21623XXSP,2013-02-16 23:31:00,
2013-02-16 18:36:00,18.1,11.2,29.88,NNW,337,0.0,0.0,74,0.00,,,0.00,WUHU21623XXSP,2013-02-16 23:36:00,
2013-02-16 18:41:00,18.1,11.2,29.88,NNW,337,0.0,0.0,74,0.00,,,0.00,WUHU21623XXSP,2013-02-16 23:41:00,
2013-02-16 18:46:00,18.1,11.2,29.88,North,0,0.0,5.6,74,0.00,,,0.00,WUHU21623XXSP,2013-02-16 23:46:00,
2013-02-16 18:51:00,18.1,11.2,29.89,NNW,337,0.0,5.6,74,0.00,,,0.00,WUHU21623XXSP,2013-02-16 23:51:00,
2013-02-16 18:56:00,17.9,11.3,29.89,NNW,337,0.0,0.0,75,0.00,,,0.00,WUHU21623XXSP,2013-02-16 23:56:00,
2013-02-16 19:01:00,17.7,11.1,29.89,NNW,337,0.0,0.0,75,0.00,,,0.00,WUHU21623XXSP,2013-02-17 00:01:00,
2013-02-16 19:06:00,17.5,11.0,29.89,North,0,0.0,0.0,75,0.00,,,0.00,WUHU21623XXSP,2013-02-17 00:06:00,
2013-02-16 19:11:00,17.5,11.0,29.89,NNW,337,0.0,0.0,75,0.00,,,0.00,WUHU21623XXSP,2013-02-17 00:11:00,
2013-02-16 19:16:00,17.2,10.7,29.89,NNW,337,0.0,0.0,75,0.00,,,0.00,WUHU21623XXSP,2013-02-17 00:16:00,
2013-02-16 19:21:00,17.2,10.7,29.89,NNW,337,0.0,0.0,75,0.00,,,0.00,WUHU21623XXSP,2013-02-17 00:21:00,
2013-02-16 19:27:00,16.8,10.6,29.89,NNW,337,0.0,0.0,76,0.00,,,0.00,WUHU21623XXSP,2013-02-17 00:27:00,
2013-02-16 19:32:00,16.8,10.6,29.90,NNW,337,0.0,0.0,76,0.00,,,0.00,WUHU21623XXSP,2013-02-17 00:32:00,
2013-02-16 19:37:00,16.8,10.6,29.89,NNW,337,0.0,0.0,76,0.00,,,0.00,WUHU21623XXSP,2013-02-17 00:37:00,
2013-02-16 19:42:00,16.5,10.3,29.90,NNW,337,0.0,0.0,76,0.00,,,0.00,WUHU21623XXSP,2013-02-17 00:42:00,
2013-02-16 19:47:00,16.5,10.6,29.90,NE,45,0.0,0.0,77,0.00,,,0.00,WUHU21623XXSP,2013-02-17 00:47:00,
2013-02-16 19:52:00,16.5,10.6,29.90,NE,45,0.0,0.0,77,0.00,,,0.00,WUHU21623XXSP,2013-02-17 00:52:00,
2013-02-16 19:57:00,16.3,10.4,29.90,NW,315,0.0,0.0,77,0.00,,,0.00,WUHU21623XXSP,2013-02-17 00:57:00,
2013-02-16 20:02:00,16.5,10.8,29.90,NW,315,0.0,0.0,78,0.00,,,0.00,WUHU21623XXSP,2013-02-17 01:02:00,
2013-02-16 20:07:00,16.5,10.8,29.90,North,0,0.0,0.0,78,0.00,,,0.00,WUHU21623XXSP,2013-02-17 01:07:00,
2013-02-16 20:12:00,16.6,10.9,29.90,NNW,337,0.0,0.0,78,0.00,,,0.00,WUHU21623XXSP,2013-02-17 01:12:00,
2013-02-16 20:17:00,16.5,10.8,29.90,NNW,337,0.0,0.0,78,0.00,,,0.00,WUHU21623XXSP,2013-02-17 01:17:00,
2013-02-16 20:23:00,16.5,10.8,29.90,NNW,337,0.0,0.0,78,0.00,,,0.00,WUHU21623XXSP,2013-02-17 01:23:00,
2013-02-16 20:28:00,16.3,10.7,29.91,NNW,337,0.0,0.0,78,0.00,,,0.00,WUHU21623XXSP,2013-02-17 01:28:00,
2013-02-16 20:33:00,16.3,10.7,29.91,North,0,2.0,2.0,78,0.00,,,0.00,WUHU21623XXSP,2013-02-17 01:33:00,
2013-02-16 20:38:00,16.3,10.9,29.91,North,0,0.0,2.0,79,0.00,,,0.00,WUHU21623XXSP,2013-02-17 01:38:00,
2013-02-16 20:43:00,16.1,10.7,29.91,North,0,0.0,0.0,79,0.00,,,0.00,WUHU21623XXSP,2013-02-17 01:43:00,
2013-02-16 20:48:00,15.9,10.5,29.91,North,0,0.0,0.0,79,0.00,,,0.00,WUHU21623XXSP,2013-02-17 01:48:00,
2013-02-16 20:53:00,15.9,10.5,29.91,NNW,337,0.0,0.0,79,0.00,,,0.00,WUHU21623XXSP,2013-02-17 01:53:00,
2013-02-16 20:58:00,15.9,10.8,29.91,NW,315,0.0,0.0,80,0.00,,,0.00,WUHU21623XXSP,2013-02-17 01:58:00,
2013-02-16 21:03:00,15.9,10.8,29.90,NNW,337,0.0,0.0,80,0.00,,,0.00,WUHU21623XXSP,2013-02-17 02:03:00,
2013-02-16 21:08:00,15.9,10.8,29.91,NNW,337,0.0,0.0,80,0.00,,,0.00,WUHU21623XXSP,2013-02-17 02:08:00,
2013-02-16 21:13:00,15.9,10.8,29.90,NNW,337,0.0,0.0,80,0.00,,,0.00,WUHU21623XXSP,2013-02-17 02:13:00,
2013-02-16 21:18:00,15.9,10.8,29.91,NNW,337,0.0,0.0,80,0.00,,,0.00,WUHU21623XXSP,2013-02-17 02:18:00,
2013-02-16 21:23:00,15.9,10.8,29.91,North,0,0.0,0.0,80,0.00,,,0.00,WUHU21623XXSP,2013-02-17 02:23:00,
2013-02-16 21:28:00,16.3,11.2,29.91,NNW,337,0.0,0.0,80,0.00,,,0.00,WUHU21623XXSP,2013-02-17 02:28:00,
2013-02-16 21:33:00,16.3,11.2,29.91,NNE,22,0.0,0.0,80,0.00,,,0.00,WUHU21623XXSP,2013-02-17 02:33:00,
2013-02-16 21:38:00,16.5,11.7,29.92,NNE,22,0.0,0.0,81,0.00,,,0.00,WUHU21623XXSP,2013-02-17 02:38:00,
2013-02-16 21:43:00,16.6,11.8,29.92,North,0,0.0,0.0,81,0.00,,,0.00,WUHU21623XXSP,2013-02-17 02:43:00,
2013-02-16 21:48:00,16.8,12.0,29.92,NE,45,0.0,0.0,81,0.00,,,0.00,WUHU21623XXSP,2013-02-17 02:48:00,
2013-02-16 21:53:00,16.8,12.0,29.92,NNE,22,0.0,0.0,81,0.00,,,0.00,WUHU21623XXSP,2013-02-17 02:53:00,
2013-02-16 21:59:00,16.8,12.0,29.92,NNW,337,0.0,0.0,81,0.00,,,0.00,WUHU21623XXSP,2013-02-17 02:59:00,
2013-02-16 22:04:00,16.8,12.0,29.92,NNE,22,0.0,0.0,81,0.00,,,0.00,WUHU21623XXSP,2013-02-17 03:04:00,
2013-02-16 22:09:00,16.8,12.0,29.92,NNE,22,0.0,0.0,81,0.00,,,0.00,WUHU21623XXSP,2013-02-17 03:09:00,
2013-02-16 22:14:00,16.5,11.4,29.92,NE,45,0.0,0.0,80,0.00,,,0.00,WUHU21623XXSP,2013-02-17 03:14:00,
2013-02-16 22:19:00,16.3,11.2,29.92,NE,45,0.0,0.0,80,0.00,,,0.00,WUHU21623XXSP,2013-02-17 03:19:00,
2013-02-16 22:25:00,16.3,11.2,29.92,NE,45,0.0,0.0,80,0.00,,,0.00,WUHU21623XXSP,2013-02-17 03:25:00,
2013-02-16 22:30:00,15.9,10.8,29.92,NE,45,0.0,0.0,80,0.00,,,0.00,WUHU21623XXSP,2013-02-17 03:30:00,
2013-02-16 22:35:00,15.7,10.6,29.92,NE,45,0.0,0.0,80,0.00,,,0.00,WUHU21623XXSP,2013-02-17 03:35:00,
2013-02-16 22:42:00,15.4,10.3,29.93,NNW,337,0.0,0.0,80,0.00,,,0.00,WUHU21623XXSP,2013-02-17 03:42:00,
2013-02-16 22:47:00,15.2,10.1,29.92,NNW,337,0.0,0.0,80,0.00,,,0.00,WUHU21623XXSP,2013-02-17 03:47:00,
2013-02-16 22:52:00,14.8,9.5,29.92,North,0,0.0,0.0,79,0.00,,,0.00,WUHU21623XXSP,2013-02-17 03:52:00,
2013-02-16 23:14:00,13.2,7.9,29.92,North,0,0.0,0.0,79,0.00,,,0.00,WUHU21623XXSP,2013-02-17 04:14:00,